createdAt,value
2022-12-15T00:02:13.320Z,6.78
2022-12-15T00:04:58.161Z,7.70
2022-12-15T00:07:43.209Z,6.82
2022-12-15T00:10:28.050Z,6.85
2022-12-15T00:13:12.914Z,6.57
2022-12-15T00:15:57.708Z,8.20
2022-12-15T00:18:42.850Z,7.03
2022-12-15T00:21:28.332Z,6.85
2022-12-15T00:24:13.175Z,8.00
2022-12-15T00:26:57.961Z,6.80
2022-12-15T00:29:42.750Z,6.78
2022-12-15T00:32:27.650Z,6.97
2022-12-15T00:35:12.404Z,8.27
2022-12-15T00:37:57.278Z,6.85
2022-12-15T00:40:23.757Z,8.07
2022-12-15T00:42:50.211Z,7.10
2022-12-15T00:45:16.752Z,7.00
2022-12-15T00:47:43.304Z,6.80
2022-12-15T00:50:28.497Z,6.80
2022-12-15T00:53:13.299Z,6.78
2022-12-15T00:55:58.059Z,6.90
2022-12-15T00:58:42.887Z,7.07
2022-12-15T01:01:29.334Z,6.95
2022-12-15T01:04:14.771Z,7.13
2022-12-15T01:06:59.995Z,7.55
2022-12-15T01:09:44.921Z,6.80
2022-12-15T01:12:30.029Z,6.90
2022-12-15T01:15:14.900Z,6.97
2022-12-15T01:17:59.721Z,6.93
2022-12-15T01:20:26.196Z,7.30
2022-12-15T01:22:55.951Z,6.90
2022-12-15T01:25:24.742Z,8.20
2022-12-15T01:27:51.649Z,8.23
2022-12-15T01:30:21.606Z,8.55
2022-12-15T01:32:48.086Z,6.65
2022-12-15T01:35:14.848Z,6.60
2022-12-15T01:37:41.356Z,8.38
2022-12-15T01:40:30.228Z,7.03
2022-12-15T01:42:56.654Z,6.45
2022-12-15T01:45:29.110Z,6.68
2022-12-15T01:48:12.672Z,6.30
2022-12-15T01:51:24.426Z,7.03
2022-12-15T01:53:59.309Z,7.03
2022-12-15T01:56:30.086Z,6.93
2022-12-15T01:59:03.021Z,7.65
2022-12-15T02:01:29.759Z,7.00
2022-12-15T02:03:56.749Z,7.93
2022-12-15T02:06:25.588Z,7.32
2022-12-15T02:08:55.289Z,7.72
2022-12-15T02:11:55.583Z,7.45
2022-12-15T02:14:40.302Z,8.23
2022-12-15T02:17:40.581Z,7.40
2022-12-15T02:20:48.607Z,7.35
2022-12-15T02:23:24.033Z,7.07
2022-12-15T02:25:53.304Z,9.23
2022-12-15T02:28:46.000Z,7.15
2022-12-15T02:31:35.913Z,7.85
2022-12-15T02:34:14.738Z,7.32
2022-12-15T02:36:47.541Z,7.55
2022-12-15T02:39:14.871Z,7.55
2022-12-15T02:41:44.215Z,8.27
2022-12-15T02:44:14.242Z,7.28
2022-12-15T02:46:59.417Z,8.43
2022-12-15T02:49:49.810Z,7.63
2022-12-15T02:52:28.495Z,7.57
2022-12-15T02:55:22.990Z,6.90
2022-12-15T02:58:01.835Z,7.45
2022-12-15T03:00:31.929Z,7.95
2022-12-15T03:02:59.209Z,7.28
2022-12-15T03:05:26.229Z,6.50
2022-12-15T03:07:54.306Z,7.18
2022-12-15T03:10:24.447Z,7.80
2022-12-15T03:12:51.809Z,7.65
2022-12-15T03:15:19.265Z,6.82
2022-12-15T03:17:45.889Z,7.30
2022-12-15T03:20:12.374Z,6.97
2022-12-15T03:22:39.378Z,7.25
2022-12-15T03:25:06.251Z,6.93
2022-12-15T03:27:32.831Z,7.80
2022-12-15T03:29:59.332Z,6.95
2022-12-15T03:32:25.780Z,6.53
2022-12-15T03:34:52.247Z,7.20
2022-12-15T03:37:18.728Z,7.22
2022-12-15T03:39:45.193Z,6.47
2022-12-15T03:42:11.694Z,6.22
2022-12-15T03:44:38.143Z,7.43
2022-12-15T03:47:05.869Z,6.50
2022-12-15T03:49:32.501Z,6.53
2022-12-15T03:51:58.942Z,7.25
2022-12-15T03:54:25.419Z,7.20
2022-12-15T03:56:51.965Z,6.80
2022-12-15T03:59:18.965Z,7.90
2022-12-15T04:01:48.082Z,6.10
2022-12-15T04:04:15.287Z,6.45
2022-12-15T04:06:41.764Z,6.82
2022-12-15T04:09:08.287Z,5.78
2022-12-15T04:11:34.742Z,6.28
2022-12-15T04:14:01.255Z,6.70
2022-12-15T04:16:27.786Z,6.63
2022-12-15T04:19:14.245Z,6.85
2022-12-15T04:21:40.699Z,6.50
2022-12-15T04:24:25.968Z,7.75
2022-12-15T04:27:10.766Z,7.47
2022-12-15T04:29:55.515Z,6.07
2022-12-15T04:32:40.314Z,6.63
2022-12-15T04:35:25.343Z,6.63
2022-12-15T04:38:10.595Z,7.38
2022-12-15T04:40:55.937Z,6.72
2022-12-15T04:43:41.365Z,7.45
2022-12-15T04:46:26.157Z,6.70
2022-12-15T04:49:11.231Z,6.15
2022-12-15T04:51:56.071Z,6.85
2022-12-15T04:54:40.850Z,6.65
2022-12-15T04:57:25.668Z,6.45
2022-12-15T05:00:10.701Z,6.38
2022-12-15T05:02:55.508Z,6.63
2022-12-15T05:05:40.107Z,6.97
2022-12-15T05:08:24.990Z,6.45
2022-12-15T05:11:09.723Z,7.47
2022-12-15T05:13:54.572Z,6.10
2022-12-15T05:16:39.377Z,6.70
2022-12-15T05:19:24.509Z,6.35
2022-12-15T05:22:09.349Z,7.63
2022-12-15T05:24:54.089Z,6.38
2022-12-15T05:27:38.921Z,7.93
2022-12-15T05:30:24.195Z,6.05
2022-12-15T05:32:50.647Z,6.95
2022-12-15T05:35:18.316Z,6.35
2022-12-15T05:37:44.910Z,7.32
2022-12-15T05:40:11.721Z,6.63
2022-12-15T05:42:38.230Z,6.25
2022-12-15T05:45:05.237Z,5.65
2022-12-15T05:47:31.762Z,6.70
2022-12-15T05:49:58.174Z,5.85
2022-12-15T05:52:24.845Z,6.32
2022-12-15T05:54:51.527Z,6.55
2022-12-15T05:57:18.046Z,6.43
2022-12-15T05:59:44.627Z,5.97
2022-12-15T06:02:11.295Z,6.72
2022-12-15T06:04:37.920Z,5.93
2022-12-15T06:07:04.427Z,6.40
2022-12-15T06:09:30.892Z,6.90
2022-12-15T06:11:57.363Z,6.43
2022-12-15T06:14:23.878Z,6.03
2022-12-15T06:16:51.671Z,5.63
2022-12-15T06:19:19.418Z,6.50
2022-12-15T06:21:45.942Z,6.05
2022-12-15T06:24:12.457Z,6.40
2022-12-15T06:26:40.227Z,8.20
2022-12-15T06:29:08.958Z,6.45
2022-12-15T06:31:36.389Z,6.40
2022-12-15T06:34:05.356Z,5.13
2022-12-15T06:36:32.028Z,5.90
2022-12-15T06:39:00.627Z,5.40
2022-12-15T06:41:28.036Z,5.40
2022-12-15T06:43:58.260Z,5.78
2022-12-15T06:46:26.318Z,5.45
2022-12-15T06:48:53.289Z,7.32
2022-12-15T06:51:20.553Z,6.00
2022-12-15T06:53:52.519Z,6.35
2022-12-15T06:56:32.599Z,4.93
2022-12-15T06:59:00.515Z,5.45
2022-12-15T07:01:27.612Z,4.90
2022-12-15T07:03:54.990Z,5.30
2022-12-15T07:06:21.995Z,6.15
2022-12-15T07:08:52.466Z,7.07
2022-12-15T07:11:20.978Z,5.15
2022-12-15T07:13:52.205Z,7.75
2022-12-15T07:16:19.761Z,9.82
2022-12-15T07:18:46.297Z,8.57
2022-12-15T07:21:12.945Z,27.20
2022-12-15T07:23:54.224Z,55.40
2022-12-15T07:26:21.780Z,46.50
2022-12-15T07:28:48.296Z,50.22
2022-12-15T07:31:15.534Z,65.35
2022-12-15T07:33:42.518Z,50.00
2022-12-15T07:36:09.312Z,50.28
2022-12-15T07:38:36.271Z,50.10
2022-12-15T07:41:04.895Z,49.05
2022-12-15T07:43:32.110Z,49.05
2022-12-15T07:45:59.199Z,47.05
2022-12-15T07:48:27.177Z,46.35
2022-12-15T07:51:02.747Z,42.75
2022-12-15T07:53:35.371Z,46.17
2022-12-15T07:56:09.007Z,43.30
2022-12-15T07:58:36.537Z,44.20
2022-12-15T08:01:06.183Z,46.97
2022-12-15T08:03:33.488Z,42.90
2022-12-15T08:06:08.711Z,46.97
2022-12-15T08:08:35.998Z,50.03
2022-12-15T08:11:06.947Z,49.28
2022-12-15T08:16:21.404Z,49.28
2022-12-15T08:18:48.762Z,45.35
2022-12-15T08:21:15.359Z,44.90
2022-12-15T08:23:41.911Z,43.75
2022-12-15T08:26:10.932Z,42.65
2022-12-15T08:28:39.330Z,42.15
2022-12-15T08:31:11.715Z,40.42
2022-12-15T08:33:38.280Z,40.58
2022-12-15T08:36:07.331Z,41.28
2022-12-15T08:38:35.524Z,37.65
2022-12-15T08:41:10.053Z,38.25
2022-12-15T08:43:45.773Z,37.53
2022-12-15T08:46:17.085Z,37.85
2022-12-15T08:48:43.717Z,36.90
2022-12-15T08:51:10.678Z,36.70
2022-12-15T08:53:37.376Z,38.30
2022-12-15T08:56:09.388Z,39.85
2022-12-15T08:58:36.483Z,39.30
2022-12-15T09:01:06.263Z,42.33
2022-12-15T09:03:34.559Z,49.78
2022-12-15T09:06:03.789Z,56.05
2022-12-15T09:08:31.068Z,56.83
2022-12-15T09:10:59.011Z,71.88
2022-12-15T09:13:25.650Z,69.10
2022-12-15T09:16:11.225Z,68.88
2022-12-15T09:18:38.218Z,69.00
2022-12-15T09:21:07.478Z,68.47
2022-12-15T09:23:36.011Z,69.72
2022-12-15T09:26:12.087Z,66.53
2022-12-15T09:28:38.774Z,65.93
2022-12-15T09:31:08.477Z,66.70
2022-12-15T09:33:35.954Z,64.55
2022-12-15T09:36:03.731Z,63.58
2022-12-15T09:38:31.190Z,62.63
2022-12-15T09:40:57.708Z,61.70
2022-12-15T09:43:37.038Z,63.75
2022-12-15T09:46:16.915Z,63.20
2022-12-15T09:48:45.472Z,64.05
2022-12-15T09:51:16.085Z,63.30
2022-12-15T09:53:54.649Z,61.17
2022-12-15T09:56:50.122Z,64.10
2022-12-15T09:59:16.663Z,61.55
2022-12-15T10:01:52.528Z,61.50
2022-12-15T10:04:37.967Z,59.33
2022-12-15T10:07:30.085Z,57.25
2022-12-15T10:09:56.873Z,55.72
2022-12-15T10:12:33.042Z,55.33
2022-12-15T10:15:17.016Z,53.90
2022-12-15T10:17:55.215Z,52.05
2022-12-15T10:20:28.828Z,50.22
2022-12-15T10:23:01.800Z,50.10
2022-12-15T10:25:32.024Z,47.97
2022-12-15T10:28:16.781Z,47.85
2022-12-15T10:31:16.755Z,45.20
2022-12-15T10:33:47.119Z,43.60
2022-12-15T10:36:16.487Z,39.95
2022-12-15T10:38:50.469Z,40.35
2022-12-15T10:41:26.360Z,38.05
2022-12-15T10:43:54.252Z,37.13
2022-12-15T10:46:29.576Z,37.13
2022-12-15T10:48:59.319Z,34.83
2022-12-15T10:51:49.357Z,35.80
2022-12-15T10:54:18.325Z,33.33
2022-12-15T10:57:01.677Z,33.58
2022-12-15T10:59:33.491Z,30.60
2022-12-15T11:02:25.266Z,28.95
2022-12-15T11:05:05.154Z,29.42
2022-12-15T11:07:37.282Z,28.15
2022-12-15T11:10:17.242Z,27.48
2022-12-15T11:12:58.278Z,26.92
2022-12-15T11:15:25.269Z,25.05
2022-12-15T11:18:06.979Z,25.23
2022-12-15T11:20:38.182Z,24.10
2022-12-15T11:23:16.620Z,23.80
2022-12-15T11:25:48.302Z,23.38
2022-12-15T11:28:26.756Z,23.42
2022-12-15T11:31:00.369Z,22.67
2022-12-15T11:33:27.032Z,21.98
2022-12-15T11:36:15.312Z,20.70
2022-12-15T11:38:46.168Z,20.42
2022-12-15T11:41:38.331Z,20.17
2022-12-15T11:44:42.387Z,19.13
2022-12-15T11:47:23.247Z,20.08
2022-12-15T11:49:55.729Z,17.80
2022-12-15T11:53:03.704Z,17.48
2022-12-15T11:55:41.281Z,16.83
2022-12-15T11:58:13.999Z,16.02
2022-12-15T12:00:48.907Z,15.48
2022-12-15T12:03:38.434Z,15.68
2022-12-15T12:06:25.824Z,15.15
2022-12-15T12:09:03.864Z,15.77
2022-12-15T12:11:42.134Z,16.75
2022-12-15T12:14:17.280Z,14.93
2022-12-15T12:16:58.923Z,14.23
2022-12-15T12:19:25.370Z,13.23
2022-12-15T12:21:57.605Z,12.75
2022-12-15T12:24:29.851Z,11.82
2022-12-15T12:27:12.712Z,12.50
2022-12-15T12:29:55.473Z,12.10
2022-12-15T12:32:40.426Z,12.82
2022-12-15T12:35:30.847Z,10.95
2022-12-15T12:41:14.293Z,10.88
2022-12-15T12:43:50.397Z,10.50
2022-12-15T12:46:34.004Z,10.35
2022-12-15T12:49:07.671Z,11.13
2022-12-15T12:51:37.990Z,10.20
2022-12-15T12:54:36.191Z,11.25
2022-12-15T12:57:28.505Z,11.65
2022-12-15T13:00:15.586Z,9.40
2022-12-15T13:02:53.100Z,8.38
2022-12-15T13:05:22.600Z,10.68
2022-12-15T13:08:09.507Z,9.57
2022-12-15T13:10:38.781Z,10.48
2022-12-15T13:13:31.433Z,9.98
2022-12-15T13:16:08.306Z,10.57
2022-12-15T13:21:43.555Z,9.35
2022-12-15T13:24:35.985Z,7.63
2022-12-15T13:27:14.252Z,7.67
2022-12-15T13:30:05.787Z,12.73
2022-12-15T13:32:35.403Z,18.95
2022-12-15T13:35:17.221Z,26.48
2022-12-15T13:37:49.001Z,34.05
2022-12-15T13:40:35.103Z,37.13
2022-12-15T13:43:04.776Z,38.03
2022-12-15T13:45:37.620Z,37.53
2022-12-15T13:51:05.496Z,32.30
2022-12-15T13:53:53.554Z,33.28
2022-12-15T13:56:46.015Z,30.10
2022-12-15T13:59:40.242Z,28.40
2022-12-15T14:02:29.831Z,30.02
2022-12-15T14:05:14.882Z,43.30
2022-12-15T14:07:49.550Z,54.58
2022-12-15T14:10:29.801Z,54.15
2022-12-15T14:13:01.087Z,53.63
2022-12-15T14:15:31.468Z,59.60
2022-12-15T14:18:00.330Z,59.40
2022-12-15T14:20:31.894Z,80.45
2022-12-15T14:22:59.015Z,79.10
2022-12-15T14:25:29.349Z,74.82
2022-12-15T14:27:56.523Z,76.90
2022-12-15T14:30:24.804Z,69.47
2022-12-15T14:33:01.000Z,76.05
2022-12-15T14:35:36.688Z,71.28
2022-12-15T14:38:07.484Z,108.90
2022-12-15T14:40:37.690Z,91.35
2022-12-15T14:43:07.247Z,91.40
2022-12-15T14:45:33.950Z,80.20
2022-12-15T14:50:53.384Z,80.93
2022-12-15T14:53:21.849Z,73.28
2022-12-15T14:55:48.701Z,70.45
2022-12-15T14:58:32.866Z,65.22
2022-12-15T15:01:00.915Z,60.50
2022-12-15T15:03:09.591Z,11.77
2022-12-15T15:03:39.066Z,62.80
2022-12-15T15:06:11.812Z,53.67
2022-12-15T15:08:50.281Z,49.90
2022-12-15T15:11:31.322Z,52.88
2022-12-15T15:14:07.612Z,52.50
2022-12-15T15:16:34.319Z,46.88
2022-12-15T15:19:02.756Z,47.92
2022-12-15T15:21:33.886Z,46.92
2022-12-15T15:24:09.583Z,41.78
2022-12-15T15:26:36.440Z,41.10
2022-12-15T15:29:03.752Z,43.47
2022-12-15T15:31:41.572Z,40.70
2022-12-15T15:34:08.654Z,43.10
2022-12-15T15:36:37.821Z,40.53
2022-12-15T15:39:14.199Z,38.58
2022-12-15T15:41:41.133Z,34.88
2022-12-15T15:44:14.503Z,38.90
2022-12-15T15:46:46.791Z,39.17
2022-12-15T15:49:17.755Z,44.08
2022-12-15T15:51:44.264Z,111.00
2022-12-15T15:54:14.892Z,193.88
2022-12-15T15:56:41.587Z,278.95
2022-12-15T15:59:14.039Z,275.92
2022-12-15T16:01:41.061Z,266.73
2022-12-15T16:04:07.775Z,263.75
2022-12-15T16:06:39.765Z,263.73
2022-12-15T16:09:12.672Z,248.52
2022-12-15T16:11:39.193Z,240.82
2022-12-15T16:14:12.032Z,243.80
2022-12-15T16:16:38.704Z,231.68
2022-12-15T16:19:05.322Z,225.93
2022-12-15T16:21:31.829Z,210.75
2022-12-15T16:23:58.974Z,217.77
2022-12-15T16:26:33.010Z,204.18
2022-12-15T16:28:59.806Z,209.52
2022-12-15T16:31:41.726Z,213.98
2022-12-15T16:34:08.577Z,210.77
2022-12-15T16:36:35.198Z,210.38
2022-12-15T16:39:01.928Z,190.82
2022-12-15T16:41:28.439Z,191.02
2022-12-15T16:43:54.909Z,187.43
2022-12-15T16:46:21.553Z,178.13
2022-12-15T16:48:48.243Z,180.73
2022-12-15T16:51:39.189Z,184.88
2022-12-15T16:54:06.923Z,179.68
2022-12-15T16:56:33.565Z,173.00
2022-12-15T16:59:30.854Z,174.15
2022-12-15T17:01:46.759Z,165.60
2022-12-15T17:04:16.237Z,161.00
2022-12-15T17:06:43.342Z,161.02
2022-12-15T17:09:15.258Z,154.40
2022-12-15T17:11:41.738Z,157.73
2022-12-15T17:14:10.202Z,152.73
2022-12-15T17:16:36.911Z,149.30
2022-12-15T17:19:03.426Z,147.35
2022-12-15T17:21:33.972Z,143.50
2022-12-15T17:24:14.046Z,135.00
2022-12-15T17:26:41.777Z,137.07
2022-12-15T17:29:15.059Z,134.40
2022-12-15T17:31:41.595Z,131.30
2022-12-15T17:34:43.605Z,128.68
2022-12-15T17:37:13.483Z,124.68
2022-12-15T17:39:44.686Z,127.80
2022-12-15T17:42:19.662Z,120.28
2022-12-15T17:44:47.790Z,114.55
2022-12-15T17:47:15.758Z,115.78
2022-12-15T17:49:43.414Z,112.47
2022-12-15T17:52:29.346Z,104.85
2022-12-15T17:54:56.484Z,112.80
2022-12-15T17:57:23.306Z,106.70
2022-12-15T17:59:50.085Z,105.20
2022-12-15T18:02:16.984Z,108.55
2022-12-15T18:04:44.156Z,99.13
2022-12-15T18:07:22.458Z,99.70
2022-12-15T18:09:50.968Z,97.72
2022-12-15T18:12:23.326Z,95.78
2022-12-15T18:14:49.945Z,91.32
2022-12-15T18:17:16.660Z,94.35
2022-12-15T18:19:43.271Z,92.63
2022-12-15T18:22:30.495Z,86.75
2022-12-15T18:25:14.308Z,84.20
2022-12-15T18:27:41.053Z,83.35
2022-12-15T18:30:13.048Z,86.93
2022-12-15T18:32:42.070Z,80.33
2022-12-15T18:35:30.288Z,81.65
2022-12-15T18:37:56.802Z,79.20
2022-12-15T18:40:26.876Z,76.63
2022-12-15T18:42:54.419Z,76.40
2022-12-15T18:45:28.022Z,76.15
2022-12-15T18:47:54.784Z,76.55
2022-12-15T18:50:23.680Z,71.72
2022-12-15T18:53:02.449Z,72.75
2022-12-15T18:55:31.187Z,68.68
2022-12-15T18:58:01.770Z,66.80
2022-12-15T19:00:30.433Z,70.28
2022-12-15T19:03:00.041Z,65.63
2022-12-15T19:05:28.710Z,67.40
2022-12-15T19:07:57.945Z,65.18
2022-12-15T19:10:26.730Z,64.53
2022-12-15T19:12:58.358Z,66.30
2022-12-15T19:15:25.833Z,62.90
2022-12-15T19:18:10.980Z,59.28
2022-12-15T19:20:56.246Z,61.10
2022-12-15T19:23:22.875Z,56.97
2022-12-15T19:25:51.241Z,56.75
2022-12-15T19:28:21.181Z,57.03
2022-12-15T19:30:47.982Z,55.90
2022-12-15T19:33:16.013Z,55.13
2022-12-15T19:35:45.072Z,51.75
2022-12-15T19:38:22.584Z,52.75
2022-12-15T19:40:53.215Z,51.08
2022-12-15T19:43:21.177Z,50.50
2022-12-15T19:45:47.981Z,51.33
2022-12-15T19:48:18.694Z,50.33
2022-12-15T19:50:51.685Z,49.72
2022-12-15T19:53:25.580Z,46.00
2022-12-15T19:55:54.961Z,47.58
2022-12-15T19:58:28.703Z,45.95
2022-12-15T20:01:07.186Z,46.05
2022-12-15T20:03:34.877Z,44.97
2022-12-15T20:06:02.965Z,42.65
2022-12-15T20:08:34.269Z,40.85
2022-12-15T20:11:00.952Z,41.42
2022-12-15T20:13:27.445Z,43.92
2022-12-15T20:15:54.335Z,42.17
2022-12-15T20:18:21.002Z,41.22
2022-12-15T20:20:49.197Z,42.65
2022-12-15T20:23:23.664Z,37.92
2022-12-15T20:25:50.317Z,37.38
2022-12-15T20:28:23.784Z,36.33
2022-12-15T20:30:51.331Z,36.35
2022-12-15T20:33:19.668Z,36.80
2022-12-15T20:35:48.157Z,34.75
2022-12-15T20:38:23.884Z,36.58
2022-12-15T20:40:50.964Z,34.22
2022-12-15T20:43:20.389Z,34.72
2022-12-15T20:45:51.970Z,35.00
2022-12-15T20:48:21.604Z,34.13
2022-12-15T20:50:49.824Z,32.60
2022-12-15T20:53:23.204Z,33.05
2022-12-15T20:55:51.218Z,33.45
2022-12-15T20:58:18.751Z,29.38
2022-12-15T21:00:46.327Z,31.27
2022-12-15T21:03:25.430Z,27.77
2022-12-15T21:05:54.261Z,29.25
2022-12-15T21:08:29.642Z,31.13
2022-12-15T21:11:00.143Z,27.55
2022-12-15T21:13:30.183Z,28.75
2022-12-15T21:15:57.064Z,27.85
2022-12-15T21:21:17.550Z,29.75
2022-12-15T21:23:44.144Z,28.48
2022-12-15T21:26:10.806Z,26.55
2022-12-15T21:28:37.298Z,24.10
2022-12-15T21:31:04.103Z,24.58
2022-12-15T21:33:30.584Z,25.33
2022-12-15T21:35:57.149Z,26.88
2022-12-15T21:38:39.842Z,25.00
2022-12-15T21:41:10.684Z,24.58
2022-12-15T21:43:37.481Z,24.33
2022-12-15T21:46:15.256Z,25.02
2022-12-15T21:49:01.031Z,21.90
2022-12-15T21:51:32.978Z,21.88
2022-12-15T21:53:59.857Z,20.77
2022-12-15T21:56:26.419Z,21.13
2022-12-15T21:58:52.925Z,22.75
2022-12-15T22:01:24.245Z,20.85
2022-12-15T22:03:53.411Z,19.73
2022-12-15T22:06:24.620Z,22.02
2022-12-15T22:08:52.433Z,19.50
2022-12-15T22:11:23.182Z,19.95
2022-12-15T22:13:51.750Z,19.23
2022-12-15T22:16:19.345Z,18.83
2022-12-15T22:18:52.125Z,19.25
2022-12-15T22:21:18.961Z,19.83
2022-12-15T22:23:47.859Z,18.40
2022-12-15T22:26:31.475Z,18.08
2022-12-15T22:29:01.389Z,15.85
2022-12-15T22:31:28.401Z,18.48
2022-12-15T22:33:55.219Z,17.90
2022-12-15T22:36:21.742Z,18.13
2022-12-15T22:38:48.241Z,16.40
2022-12-15T22:41:20.053Z,17.15
2022-12-15T22:43:51.246Z,15.82
2022-12-15T22:46:20.221Z,17.23
2022-12-15T22:48:47.738Z,17.27
2022-12-15T22:51:16.704Z,17.00
2022-12-15T22:53:43.281Z,17.08
2022-12-15T22:56:26.052Z,16.52
2022-12-15T22:58:58.882Z,17.13
2022-12-15T23:01:26.951Z,16.13
2022-12-15T23:03:53.925Z,15.48
2022-12-15T23:06:23.484Z,15.57
2022-12-15T23:08:55.765Z,14.98
2022-12-15T23:11:38.669Z,14.18
2022-12-15T23:14:07.785Z,15.52
2022-12-15T23:16:34.822Z,14.55
2022-12-15T23:19:01.788Z,14.02
2022-12-15T23:21:29.027Z,14.35
2022-12-15T23:23:55.507Z,15.25
2022-12-15T23:26:23.583Z,14.40
2022-12-15T23:28:50.034Z,14.35
2022-12-15T23:31:17.442Z,13.50
2022-12-15T23:33:43.988Z,12.48
2022-12-15T23:36:10.822Z,12.90
2022-12-15T23:38:37.277Z,13.27
2022-12-15T23:41:04.409Z,13.07
2022-12-15T23:43:33.318Z,13.18
2022-12-15T23:46:05.930Z,13.10
2022-12-15T23:48:40.641Z,14.27
2022-12-15T23:51:12.619Z,11.23
2022-12-15T23:53:40.340Z,11.98
2022-12-15T23:56:09.704Z,12.63
2022-12-15T23:58:37.673Z,12.90
